ADDS METAR Data INFO
IDs: Format: Raw Decoded Include TAF

Data at: 0221 UTC 14 Dec 2017

PAMK 140156Z AUTO 23006KT 9SM OVC014 02/01 A2935 RMK AO2 SLP943 T00170006 FZRANO $
PAMK 140151Z AUTO 23006KT 10SM OVC014 02/01 A2935 RMK AO2 FZRANO $
PAMK 140056Z AUTO 00000KT 10SM OVC018 01/00 A2935 RMK AO2 UPE27B43E48RAB27E43 SLP942 P0000 T00110000 FZRANO $
PAMK 132356Z AUTO 00000KT 10SM UP OVC020 01/00 A2935 RMK AO2 RAE44UPB44 SLP944 P0000 60000 T00110000 10022 20011 56007 FZRANO $
PAMK 132321Z AUTO 09003KT 10SM -RA BKN022 OVC060 01/00 A2935 RMK AO2 P0000 FZRANO $
PAMK 132256Z AUTO 05003KT 10SM -RA SCT036 OVC060 01/00 A2936 RMK AO2 SLP945 P0000 T00110000 FZRANO $
PAMK 132156Z AUTO 00000KT 10SM -RA OVC044 01/00 A2937 RMK AO2 SLP948 P0000 T00110000 FZRANO $
PAMK 132056Z AUTO 07004KT 10SM -RA FEW029 SCT037 OVC046 01/00 A2938 RMK AO2 UPE10RAB10 SLP951 P0000 60000 T00110000 58012 FZRANO $
PAMK 131956Z AUTO 08008KT 10SM UP BKN047 BKN060 OVC075 02/01 A2939 RMK AO2 RAE29UPB29 SLP955 P0000 T00170006 FZRANO $
PAMK 131856Z AUTO 09009KT 10SM -RA OVC038 02/01 A2941 RMK AO2 RAB1758E19B47UPB36E47 SLP962 P0000 T00170006 FZRANO $
PAMK 131756Z AUTO 08008KT 10SM SCT060 BKN080 BKN100 02/00 A2941 RMK AO2 SLP964 T00170000 10033 20011 50002 FZRANO $
PAMK 131656Z AUTO 10017KT 10SM FEW110 02/01 A2942 RMK AO2 SLP965 T00170006 FZRANO $
PAMK 131556Z AUTO 09015KT 10SM CLR 02/M01 A2941 RMK AO2 SLP961 T00171006 FZRANO $
PAMK 131456Z AUTO 06007KT 10SM CLR 03/00 A2941 RMK AO2 SLP961 T00330000 56013 $
PAMK 131356Z AUTO 11012KT 10SM CLR 03/00 A2941 RMK AO2 SLP964 T00330000 $
PAMK 131256Z AUTO 14007KT 10SM CLR 02/01 A2943 RMK AO2 SLP970 T00220006 FZRANO $
PAMK 131156Z AUTO 07005KT 10SM CLR 02/M01 A2944 RMK AO2 SLP974 T00171011 10033 20011 53000 FZRANO $
PAMK 131056Z AUTO 13017KT 10SM CLR 03/01 A2944 RMK AO2 SLP973 T00330006 $
PAMK 131013Z AUTO VRB03KT 10SM SCT025 01/M01 A2944 RMK AO2 FZRANO $
PAMK 130956Z AUTO 05014KT 10SM SCT022 BKN027 02/00 A2944 RMK AO2 SLP972 T00170000 FZRANO $
PAMK 130940Z AUTO 07012KT 10SM BKN023 BKN047 OVC100 02/00 A2944 RMK AO2 FZRANO $
PAMK 130856Z AUTO 12016KT 10SM BKN080 BKN100 OVC110 02/00 A2944 RMK AO2 SLP974 T00220000 400281050 53006 FZRANO $
PAMK 130756Z AUTO 09013KT 10SM OVC100 02/00 A2942 RMK AO2 SLP967 T00220000 FZRANO $
PAMK 130656Z AUTO 09012KT 10SM BKN090 BKN110 02/00 A2942 RMK AO2 SLP968 T00170000 FZRANO $
PAMK 130556Z AUTO 10018KT 10SM BKN060 OVC075 02/00 A2943 RMK AO2 SLP968 T00170000 10022 20017 51002 FZRANO $
PAMK 130456Z AUTO 10018KT 10SM OVC060 02/M01 A2942 RMK AO2 SLP967 T00221006 FZRANO $
PAMK 130356Z AUTO 09014KT 10SM BKN036 BKN065 OVC080 02/M01 A2943 RMK AO2 SLP969 T00221006 FZRANO $
PAMK 130256Z AUTO 09015KT 10SM BKN038 BKN048 OVC090 02/M01 A2942 RMK AO2 SLP966 T00171006 55002 FZRANO $
PAMK 130156Z AUTO 10019KT 10SM OVC065 02/00 A2941 RMK AO2 SLP964 T00220000 FZRANO $
PAMK 130056Z AUTO 10015KT 10SM FEW050 BKN060 OVC090 02/M01 A2942 RMK AO2 PK WND 10029/0019 SLP966 T00171006 FZRANO $
PAMK 122356Z AUTO 10013KT 10SM FEW075 OVC095 02/M01 A2942 RMK AO2 SLP968 T00221006 10028 20011 55006 FZRANO $
PAMK 122256Z AUTO 10016G20KT 10SM BKN080 BKN120 02/00 A2942 RMK AO2 SLP967 T00170000 FZRANO $
PAMK 122156Z AUTO 08008KT 10SM SCT060 OVC090 02/00 A2944 RMK AO2 SLP973 T00170000 FZRANO $
PAMK 122056Z AUTO 10010KT 10SM OVC060 02/M01 A2944 RMK AO2 WSHFT 1949 SLP974 T00171006 52001 FZRANO $
PAMK 122009Z AUTO 13011KT 10SM OVC060 02/00 A2944 RMK AO2 WSHFT 1949 FZRANO $
PAMK 121956Z AUTO 13012KT 10SM FEW012 OVC060 02/00 A2944 RMK AO2 SLP973 T00170000 FZRANO $
PAMK 121856Z AUTO 08011KT 10SM OVC055 02/00 A2944 RMK AO2 SLP972 T00170000 FZRANO $
PAMK 121756Z AUTO 10013KT 10SM OVC055 01/00 A2944 RMK AO2 SLP972 60000 T00110000 10011 21050 50001 FZRANO $
PAMK 121656Z AUTO 09007KT 10SM OVC048 00/M01 A2944 RMK AO2 UPE55 SLP974 P0000 T00001006 FZRANO $
PAMK 121556Z AUTO 07008KT 10SM UP OVC044 00/M01 A2944 RMK AO2 UPB30 SLP972 P0000 T00001011 FZRANO $
PAMK 121456Z AUTO 08006KT 10SM SCT034 BKN060 OVC090 M01/M02 A2943 RMK AO2 SLP971 T10111022 50000 FZRANO $